Terminal Aerodrome Forecast
Issued by NWS Jacksonville, FL

Home | Current Version | Previous Version | Text Only | Print | Product List | Glossary On
Versions: 1 2 3 4 5 6 7 8 9 10 11 12 13 14 15 16
000
FTUS42 KJAX 200520
TAFSSI
TAF
KSSI 200520Z 2006/2106 20006KT P6SM BKN040 BKN100
      TEMPO 2009/2013 3SM BR BKN020
     FM201300 21008KT P6SM SCT035 BKN100
     FM201600 22012G20KT P6SM BKN040
     FM202300 21006KT P6SM SCT050 BKN250=

USA.gov is the U.S. government's official web portal to all federal, state and local government web resources and services.